createdAt,value
2022-08-02T00:00:44.153Z,21.36
2022-08-02T00:03:46.961Z,21.44
2022-08-02T00:06:49.729Z,21.44
2022-08-02T00:09:52.503Z,21.42
2022-08-02T00:12:55.237Z,21.44
2022-08-02T00:15:58.377Z,21.52
2022-08-02T00:19:01.074Z,21.49
2022-08-02T00:22:03.859Z,21.35
2022-08-02T00:25:06.989Z,21.27
2022-08-02T00:28:11.175Z,21.22
2022-08-02T00:31:13.758Z,21.23
2022-08-02T00:34:30.195Z,21.28
2022-08-02T00:37:39.073Z,21.16
2022-08-02T00:40:48.454Z,21.06
2022-08-02T00:43:52.523Z,21.00
2022-08-02T00:46:55.412Z,20.88
2022-08-02T00:49:58.006Z,20.79
2022-08-02T00:53:01.032Z,20.81
2022-08-02T00:56:03.975Z,20.71
2022-08-02T00:59:06.814Z,20.63
2022-08-02T01:02:10.078Z,20.55
2022-08-02T01:05:13.719Z,20.51
2022-08-02T01:08:16.449Z,20.49
2022-08-02T01:11:19.625Z,20.45
2022-08-02T01:14:24.590Z,20.40
2022-08-02T01:17:45.323Z,20.36
2022-08-02T01:21:29.938Z,20.37
2022-08-02T01:24:46.180Z,20.37
2022-08-02T01:28:28.299Z,20.30
2022-08-02T01:31:35.928Z,20.26
2022-08-02T01:34:44.180Z,20.22
2022-08-02T01:37:55.106Z,20.16
2022-08-02T01:41:01.849Z,20.08
2022-08-02T01:44:06.320Z,20.02
2022-08-02T01:47:17.992Z,19.94
2022-08-02T01:50:27.719Z,19.91
2022-08-02T01:53:31.744Z,19.94
2022-08-02T01:56:35.957Z,19.91
2022-08-02T01:59:42.605Z,19.87
2022-08-02T02:02:48.108Z,19.83
2022-08-02T02:05:53.838Z,19.70
2022-08-02T02:08:58.653Z,19.65
2022-08-02T02:12:06.217Z,19.59
2022-08-02T02:15:17.803Z,19.61
2022-08-02T02:18:24.416Z,19.59
2022-08-02T02:21:26.992Z,19.51
2022-08-02T02:24:30.223Z,19.52
2022-08-02T02:27:34.433Z,19.54
2022-08-02T02:30:45.639Z,19.49
2022-08-02T02:34:20.929Z,19.41
2022-08-02T02:37:26.750Z,19.37
2022-08-02T02:40:32.831Z,19.40
2022-08-02T02:43:38.422Z,19.34
2022-08-02T02:46:41.757Z,19.26
2022-08-02T02:49:47.384Z,19.21
2022-08-02T02:52:50.790Z,19.20
2022-08-02T02:56:01.765Z,19.26
2022-08-02T02:59:07.361Z,19.25
2022-08-02T03:02:11.713Z,19.35
2022-08-02T03:05:15.821Z,19.39
2022-08-02T03:08:18.792Z,19.29
2022-08-02T03:11:22.563Z,19.34
2022-08-02T03:14:25.836Z,19.31
2022-08-02T03:17:39.004Z,19.31
2022-08-02T03:20:43.451Z,19.29
2022-08-02T03:23:46.175Z,19.18
2022-08-02T03:26:48.957Z,19.18
2022-08-02T03:29:51.508Z,19.17
2022-08-02T03:32:54.478Z,19.17
2022-08-02T03:36:02.371Z,19.18
2022-08-02T03:39:06.742Z,19.22
2022-08-02T03:42:10.041Z,19.11
2022-08-02T03:45:18.594Z,19.12
2022-08-02T03:48:34.339Z,19.14
2022-08-02T03:51:37.970Z,19.20
2022-08-02T03:54:45.136Z,19.25
2022-08-02T03:57:48.619Z,19.27
2022-08-02T04:00:56.254Z,19.21
2022-08-02T04:03:59.045Z,19.32
2022-08-02T04:07:01.763Z,19.34
2022-08-02T04:10:11.171Z,19.35
2022-08-02T04:13:13.771Z,19.32
2022-08-02T04:16:23.620Z,19.31
2022-08-02T04:19:39.529Z,19.31
2022-08-02T04:22:58.038Z,19.31
2022-08-02T04:26:01.840Z,19.42
2022-08-02T04:29:08.295Z,19.58
2022-08-02T04:32:11.206Z,19.68
2022-08-02T04:35:19.810Z,19.86
2022-08-02T04:38:23.071Z,19.95
2022-08-02T04:41:38.347Z,20.17
2022-08-02T04:44:46.302Z,20.30
2022-08-02T04:48:01.451Z,20.40
2022-08-02T04:51:06.267Z,20.51
2022-08-02T04:54:10.645Z,20.58
2022-08-02T04:57:31.747Z,20.65
2022-08-02T05:00:35.182Z,20.81
2022-08-02T05:03:37.861Z,20.95
2022-08-02T05:06:40.680Z,20.95
2022-08-02T05:09:43.196Z,21.11
2022-08-02T05:12:46.264Z,21.13
2022-08-02T05:15:50.548Z,21.25
2022-08-02T05:18:53.559Z,21.45
2022-08-02T05:21:56.156Z,21.65
2022-08-02T05:24:58.989Z,21.69
2022-08-02T05:28:01.508Z,21.86
2022-08-02T05:31:04.559Z,22.01
2022-08-02T05:34:16.089Z,22.00
2022-08-02T05:37:19.274Z,22.07
2022-08-02T05:40:25.920Z,22.26
2022-08-02T05:43:28.962Z,22.35
2022-08-02T05:46:31.596Z,22.47
2022-08-02T05:49:34.445Z,22.65
2022-08-02T05:52:59.094Z,22.81
2022-08-02T05:56:15.337Z,23.00
2022-08-02T05:59:31.138Z,23.09
2022-08-02T06:03:00.879Z,23.24
2022-08-02T06:06:16.241Z,23.33
2022-08-02T06:09:21.038Z,23.43
2022-08-02T06:12:33.000Z,23.47
2022-08-02T06:15:40.701Z,23.61
2022-08-02T06:18:57.199Z,23.66
2022-08-02T06:22:42.131Z,23.79
2022-08-02T06:25:50.997Z,23.85
2022-08-02T06:28:55.690Z,23.82
2022-08-02T06:31:58.909Z,24.01
2022-08-02T06:35:03.981Z,24.16
2022-08-02T06:38:09.549Z,24.16
2022-08-02T06:41:15.623Z,24.40
2022-08-02T06:47:41.020Z,24.43
2022-08-02T06:50:44.428Z,24.46
2022-08-02T06:53:47.613Z,24.54
2022-08-02T06:56:50.524Z,24.64
2022-08-02T06:59:53.464Z,24.79
2022-08-02T07:02:56.678Z,24.90
2022-08-02T07:06:00.997Z,25.07
2022-08-02T07:09:20.606Z,25.13
2022-08-02T07:12:23.714Z,25.19
2022-08-02T07:15:26.566Z,25.37
2022-08-02T07:18:29.352Z,25.51
2022-08-02T07:21:56.700Z,25.53
2022-08-02T07:24:56.841Z,25.51
2022-08-02T07:27:59.564Z,25.45
2022-08-02T07:31:04.195Z,25.51
2022-08-02T07:34:07.498Z,25.42
2022-08-02T07:37:22.336Z,25.71
2022-08-02T07:40:33.755Z,25.80
2022-08-02T07:43:37.071Z,26.00
2022-08-02T07:46:39.846Z,26.13
2022-08-02T07:49:42.626Z,26.41
2022-08-02T07:52:46.320Z,26.51
2022-08-02T07:55:48.818Z,26.40
2022-08-02T07:58:51.993Z,26.39
2022-08-02T08:01:54.655Z,26.44
2022-08-02T08:04:58.272Z,26.71
2022-08-02T08:08:00.757Z,26.90
2022-08-02T08:11:03.712Z,26.91
2022-08-02T08:14:25.341Z,26.94
2022-08-02T08:17:28.162Z,27.19
2022-08-02T08:20:30.696Z,27.28
2022-08-02T08:23:33.513Z,27.45
2022-08-02T08:26:36.066Z,27.50
2022-08-02T08:29:38.851Z,27.49
2022-08-02T08:32:41.357Z,27.62
2022-08-02T08:35:44.111Z,27.74
2022-08-02T08:38:46.625Z,27.72
2022-08-02T08:41:49.908Z,27.87
2022-08-02T08:44:52.562Z,28.17
2022-08-02T08:48:12.745Z,28.27
2022-08-02T08:51:19.367Z,28.38
2022-08-02T08:54:27.724Z,28.36
2022-08-02T08:57:31.734Z,28.52
2022-08-02T09:00:36.403Z,28.36
2022-08-02T09:03:39.211Z,28.53
2022-08-02T09:06:42.545Z,28.73
2022-08-02T09:09:45.061Z,28.87
2022-08-02T09:13:38.050Z,29.04
2022-08-02T09:16:36.708Z,29.27
2022-08-02T09:19:45.746Z,29.25
2022-08-02T09:23:07.249Z,29.39
2022-08-02T09:26:13.971Z,29.29
2022-08-02T09:29:18.368Z,29.02
2022-08-02T09:32:24.431Z,28.79
2022-08-02T09:36:06.853Z,28.64
2022-08-02T09:39:05.341Z,29.01
2022-08-02T09:42:10.889Z,29.31
2022-08-02T09:45:13.959Z,29.57
2022-08-02T09:48:16.574Z,29.34
2022-08-02T09:51:22.086Z,29.84
2022-08-02T09:54:28.732Z,29.70
2022-08-02T09:57:33.672Z,29.75
2022-08-02T10:00:51.777Z,29.96
2022-08-02T10:03:57.774Z,29.96
2022-08-02T10:07:17.179Z,30.26
2022-08-02T10:10:35.154Z,29.88
2022-08-02T10:13:37.725Z,30.19
2022-08-02T10:16:42.488Z,30.22
2022-08-02T10:20:02.675Z,30.41
2022-08-02T10:23:10.249Z,30.13
2022-08-02T10:26:15.942Z,30.45
2022-08-02T10:29:24.279Z,30.67
2022-08-02T10:32:39.537Z,30.73
2022-08-02T10:36:06.703Z,30.74
2022-08-02T10:39:10.455Z,30.98
2022-08-02T10:42:33.928Z,31.00
2022-08-02T10:45:36.522Z,31.30
2022-08-02T10:49:38.611Z,31.53
2022-08-02T10:52:40.850Z,31.41
2022-08-02T10:55:47.095Z,31.59
2022-08-02T10:59:27.519Z,31.53
2022-08-02T11:02:53.292Z,31.86
2022-08-02T11:06:07.575Z,31.88
2022-08-02T11:09:32.950Z,31.93
2022-08-02T11:13:04.972Z,32.05
2022-08-02T11:16:11.621Z,32.03
2022-08-02T11:19:14.868Z,32.01
2022-08-02T11:22:25.199Z,32.16
2022-08-02T11:25:43.008Z,32.33
2022-08-02T11:28:51.706Z,32.55
2022-08-02T11:31:54.213Z,32.72
2022-08-02T11:34:59.196Z,32.89
2022-08-02T11:38:16.212Z,32.77
2022-08-02T11:41:47.450Z,32.41
2022-08-02T11:44:46.768Z,32.10
2022-08-02T11:47:52.013Z,31.99
2022-08-02T11:51:23.116Z,32.57
2022-08-02T11:54:28.555Z,32.57
2022-08-02T11:58:04.484Z,32.63
2022-08-02T12:01:16.315Z,33.00
2022-08-02T12:04:22.842Z,33.01
2022-08-02T12:07:34.357Z,32.66
2022-08-02T12:10:50.238Z,32.64
2022-08-02T12:13:57.219Z,33.32
2022-08-02T12:17:18.734Z,33.09
2022-08-02T12:20:37.448Z,32.94
2022-08-02T12:23:57.155Z,32.18
2022-08-02T12:27:03.901Z,32.16
2022-08-02T12:30:13.300Z,32.24
2022-08-02T12:33:17.673Z,32.47
2022-08-02T12:36:21.758Z,32.58
2022-08-02T12:39:33.806Z,32.83
2022-08-02T12:42:46.762Z,32.86
2022-08-02T12:45:55.268Z,33.05
2022-08-02T12:49:17.447Z,32.60
2022-08-02T12:52:22.299Z,32.06
2022-08-02T12:55:59.319Z,31.51
2022-08-02T12:58:50.750Z,31.60
2022-08-02T13:01:53.628Z,31.91
2022-08-02T13:04:59.680Z,32.48
2022-08-02T13:08:04.483Z,32.98
2022-08-02T13:11:07.358Z,32.70
2022-08-02T13:14:10.214Z,32.06
2022-08-02T13:17:12.931Z,31.85
2022-08-02T13:20:17.554Z,31.54
2022-08-02T13:23:21.694Z,31.39
2022-08-02T13:26:29.600Z,31.21
2022-08-02T13:29:33.900Z,31.50
2022-08-02T13:32:36.727Z,31.79
2022-08-02T13:35:39.210Z,32.06
2022-08-02T13:38:42.171Z,32.19
2022-08-02T13:41:44.822Z,32.50
2022-08-02T13:44:47.652Z,32.59
2022-08-02T13:47:57.559Z,32.74
2022-08-02T13:51:11.959Z,32.79
2022-08-02T13:54:17.869Z,33.07
2022-08-02T13:57:20.684Z,33.31
2022-08-02T14:00:34.212Z,33.36
2022-08-02T14:04:07.524Z,33.28
2022-08-02T14:07:04.831Z,33.01
2022-08-02T14:10:08.147Z,33.39
2022-08-02T14:13:11.109Z,33.22
2022-08-02T14:16:13.999Z,32.90
2022-08-02T14:19:17.471Z,32.83
2022-08-02T14:22:20.441Z,33.02
2022-08-02T14:25:23.000Z,33.20
2022-08-02T14:28:26.162Z,33.35
2022-08-02T14:31:29.621Z,33.44
2022-08-02T14:34:32.422Z,33.43
2022-08-02T14:37:35.365Z,33.70
2022-08-02T14:40:38.373Z,33.57
2022-08-02T14:43:59.689Z,33.69
2022-08-02T14:47:02.548Z,33.82
2022-08-02T14:50:05.549Z,33.90
2022-08-02T14:53:12.069Z,34.02
2022-08-02T14:56:14.927Z,34.33
2022-08-02T14:59:17.823Z,33.83
2022-08-02T15:02:20.324Z,34.01
2022-08-02T15:05:23.188Z,34.90
2022-08-02T15:08:25.917Z,34.52
2022-08-02T15:11:28.846Z,35.25
2022-08-02T15:14:31.504Z,36.44
2022-08-02T15:17:34.337Z,37.86
2022-08-02T15:20:36.983Z,39.26
2022-08-02T15:23:42.461Z,40.76
2022-08-02T15:26:44.978Z,42.85
2022-08-02T15:29:47.829Z,44.71
2022-08-02T15:32:53.186Z,45.04
2022-08-02T15:35:57.260Z,44.12
2022-08-02T15:38:59.783Z,43.47
2022-08-02T15:42:03.210Z,44.54
2022-08-02T15:45:06.306Z,45.00
2022-08-02T15:48:09.161Z,45.18
2022-08-02T15:51:11.739Z,45.46
2022-08-02T15:54:14.628Z,46.25
2022-08-02T15:57:17.094Z,47.32
2022-08-02T16:00:20.593Z,48.07
2022-08-02T16:03:23.366Z,48.50
2022-08-02T16:06:26.336Z,47.94
2022-08-02T16:09:29.533Z,48.44
2022-08-02T16:12:32.977Z,47.25
2022-08-02T16:15:35.908Z,46.41
2022-08-02T16:18:38.504Z,46.34
2022-08-02T16:21:41.289Z,45.27
2022-08-02T16:24:43.795Z,43.42
2022-08-02T16:27:59.279Z,40.32
2022-08-02T16:31:11.186Z,37.97
2022-08-02T16:34:15.296Z,35.97
2022-08-02T16:37:17.792Z,35.49
2022-08-02T16:40:24.919Z,34.60
2022-08-02T16:43:27.716Z,33.88
2022-08-02T16:46:32.476Z,33.20
2022-08-02T16:50:07.035Z,32.74
2022-08-02T16:52:58.628Z,32.39
2022-08-02T16:56:01.534Z,31.85
2022-08-02T16:59:04.321Z,31.57
2022-08-02T17:02:15.248Z,31.35
2022-08-02T17:05:21.564Z,30.98
2022-08-02T17:08:24.378Z,30.75
2022-08-02T17:11:39.946Z,30.43
2022-08-02T17:18:13.954Z,30.12
2022-08-02T17:21:18.266Z,29.95
2022-08-02T17:24:21.237Z,29.86
2022-08-02T17:27:23.710Z,29.69
2022-08-02T17:30:27.329Z,29.55
2022-08-02T17:33:29.924Z,29.42
2022-08-02T17:36:34.412Z,29.25
2022-08-02T17:39:44.248Z,29.09
2022-08-02T17:42:54.963Z,28.99
2022-08-02T17:45:59.863Z,28.81
2022-08-02T17:49:17.606Z,28.69
2022-08-02T17:52:51.867Z,28.54
2022-08-02T17:55:46.277Z,28.51
2022-08-02T17:58:54.097Z,28.31
2022-08-02T18:02:03.542Z,28.26
2022-08-02T18:05:11.581Z,28.07
2022-08-02T18:08:16.143Z,27.91
2022-08-02T18:11:52.948Z,27.69
2022-08-02T18:14:49.286Z,27.52
2022-08-02T18:17:52.166Z,27.50
2022-08-02T18:20:58.686Z,27.41
2022-08-02T18:24:19.406Z,27.38
2022-08-02T18:27:26.641Z,27.26
2022-08-02T18:30:31.452Z,27.21
2022-08-02T18:33:57.290Z,27.11
2022-08-02T18:36:57.387Z,26.95
2022-08-02T18:40:00.149Z,26.96
2022-08-02T18:43:03.296Z,26.75
2022-08-02T18:46:16.051Z,26.66
2022-08-02T18:49:19.800Z,26.56
2022-08-02T18:52:31.034Z,26.41
2022-08-02T18:55:59.699Z,26.40
2022-08-02T18:58:58.466Z,26.25
2022-08-02T19:02:01.493Z,26.14
2022-08-02T19:05:07.054Z,26.03
2022-08-02T19:08:10.060Z,25.94
2022-08-02T19:11:13.593Z,25.81
2022-08-02T19:14:24.076Z,25.86
2022-08-02T19:17:55.104Z,25.79
2022-08-02T19:20:53.469Z,25.57
2022-08-02T19:23:56.179Z,25.50
2022-08-02T19:26:59.052Z,25.46
2022-08-02T19:30:16.368Z,25.44
2022-08-02T19:33:25.063Z,25.36
2022-08-02T19:36:42.784Z,25.28
2022-08-02T19:39:45.764Z,25.20
2022-08-02T19:44:20.926Z,25.18
2022-08-02T19:46:15.560Z,25.08
2022-08-02T19:49:20.250Z,25.02
2022-08-02T19:52:42.221Z,24.90
2022-08-02T19:56:01.097Z,24.81
2022-08-02T19:59:13.283Z,24.73
2022-08-02T20:02:18.351Z,24.69
2022-08-02T20:05:26.511Z,24.61
2022-08-02T20:08:35.331Z,24.51
2022-08-02T20:11:39.122Z,24.42
2022-08-02T20:14:50.819Z,24.35
2022-08-02T20:17:54.282Z,24.29
2022-08-02T20:20:56.899Z,24.15
2022-08-02T20:23:59.895Z,24.08
2022-08-02T20:27:03.251Z,24.05
2022-08-02T20:30:06.787Z,24.02
2022-08-02T20:33:21.660Z,23.95
2022-08-02T20:36:27.026Z,23.92
2022-08-02T20:39:42.987Z,24.14
2022-08-02T20:42:47.803Z,24.22
2022-08-02T20:45:50.866Z,24.15
2022-08-02T20:48:53.700Z,24.02
2022-08-02T20:52:01.710Z,23.94
2022-08-02T20:55:05.052Z,23.92
2022-08-02T20:58:11.827Z,23.90
2022-08-02T21:01:14.929Z,23.79
2022-08-02T21:04:19.271Z,23.70
2022-08-02T21:07:22.319Z,23.61
2022-08-02T21:10:25.307Z,23.50
2022-08-02T21:13:28.040Z,23.49
2022-08-02T21:16:30.568Z,23.58
2022-08-02T21:19:33.688Z,23.59
2022-08-02T21:22:36.213Z,23.65
2022-08-02T21:25:42.696Z,23.64
2022-08-02T21:29:03.717Z,23.75
2022-08-02T21:32:07.148Z,23.78
2022-08-02T21:35:10.603Z,23.95
2022-08-02T21:38:35.234Z,23.88
2022-08-02T21:41:39.441Z,23.72
2022-08-02T21:44:50.629Z,23.57
2022-08-02T21:47:53.342Z,23.44
2022-08-02T21:50:56.147Z,23.29
2022-08-02T21:54:17.080Z,23.19
2022-08-02T21:57:22.595Z,23.10
2022-08-02T22:00:28.901Z,23.02
2022-08-02T22:03:32.352Z,22.97
2022-08-02T22:06:35.537Z,22.93
2022-08-02T22:09:43.419Z,22.90
2022-08-02T22:12:47.841Z,22.84
2022-08-02T22:15:50.708Z,22.79
2022-08-02T22:18:53.679Z,22.77
2022-08-02T22:21:59.008Z,22.67
2022-08-02T22:25:01.808Z,22.63
2022-08-02T22:28:36.733Z,22.54
2022-08-02T22:31:40.849Z,22.47
2022-08-02T22:34:51.648Z,22.35
2022-08-02T22:38:14.755Z,22.30
2022-08-02T22:41:17.858Z,22.24
2022-08-02T22:44:20.597Z,22.33
2022-08-02T22:47:23.336Z,22.22
2022-08-02T22:50:31.838Z,22.16
2022-08-02T22:53:35.443Z,22.15
2022-08-02T22:56:38.556Z,22.10
2022-08-02T22:58:37.496Z,30.22
2022-08-02T22:59:47.447Z,21.99
2022-08-02T23:02:51.184Z,21.89
2022-08-02T23:05:54.234Z,21.89
2022-08-02T23:08:56.752Z,21.82
2022-08-02T23:11:59.609Z,21.70
2022-08-02T23:15:02.190Z,21.64
2022-08-02T23:18:24.754Z,21.55
2022-08-02T23:21:46.161Z,21.49
2022-08-02T23:24:55.588Z,21.42
2022-08-02T23:27:58.028Z,21.31
2022-08-02T23:31:01.586Z,21.28
2022-08-02T23:34:04.952Z,21.23
2022-08-02T23:37:07.951Z,21.19
2022-08-02T23:40:10.864Z,21.16
2022-08-02T23:43:15.380Z,21.17
2022-08-02T23:46:17.950Z,21.16
2022-08-02T23:49:22.253Z,21.13
2022-08-02T23:52:24.969Z,21.15
2022-08-02T23:55:27.727Z,21.19
2022-08-02T23:58:32.855Z,21.17
